createdAt,value
2018-12-06T00:00:33.115Z,20.80
2018-12-06T00:03:02.032Z,17.83
2018-12-06T00:05:30.692Z,17.77
2018-12-06T00:08:11.006Z,23.80
2018-12-06T00:10:39.979Z,18.87
2018-12-06T00:13:09.022Z,15.77
2018-12-06T00:15:38.220Z,17.80
2018-12-06T00:18:07.409Z,17.30
2018-12-06T00:20:36.052Z,19.13
2018-12-06T00:23:04.960Z,16.80
2018-12-06T00:25:33.937Z,19.17
2018-12-06T00:28:02.964Z,20.30
2018-12-06T00:30:37.573Z,17.03
2018-12-06T00:33:06.701Z,17.23
2018-12-06T00:35:35.715Z,18.37
2018-12-06T00:38:04.909Z,16.20
2018-12-06T00:40:33.956Z,14.63
2018-12-06T00:43:02.973Z,14.47
2018-12-06T00:45:31.927Z,14.80
2018-12-06T00:48:00.607Z,15.50
2018-12-06T00:50:30.207Z,14.90
2018-12-06T00:52:59.193Z,17.67
2018-12-06T00:55:28.152Z,15.67
2018-12-06T00:57:57.144Z,13.87
2018-12-06T01:00:26.238Z,15.87
2018-12-06T01:02:55.233Z,14.67
2018-12-06T01:05:24.611Z,15.90
2018-12-06T01:07:53.574Z,17.37
2018-12-06T01:10:22.622Z,16.23
2018-12-06T01:12:51.648Z,20.40
2018-12-06T01:15:20.606Z,16.83
2018-12-06T01:17:49.590Z,18.93
2018-12-06T01:20:18.265Z,17.10
2018-12-06T01:22:47.136Z,15.93
2018-12-06T01:25:16.124Z,17.67
2018-12-06T01:27:45.229Z,18.63
2018-12-06T01:30:13.983Z,16.23
2018-12-06T01:32:42.873Z,17.23
2018-12-06T01:35:11.857Z,15.40
2018-12-06T01:37:40.875Z,15.83
2018-12-06T01:40:09.569Z,17.03
2018-12-06T01:42:38.441Z,15.57
2018-12-06T01:45:07.952Z,14.30
2018-12-06T01:47:36.913Z,13.77
2018-12-06T01:50:06.352Z,17.07
2018-12-06T01:52:35.293Z,17.23
2018-12-06T01:55:04.592Z,16.90
2018-12-06T01:57:33.553Z,15.67
2018-12-06T02:00:02.555Z,17.77
2018-12-06T02:02:31.587Z,15.70
2018-12-06T02:05:00.420Z,15.93
2018-12-06T02:07:29.309Z,16.60
2018-12-06T02:09:58.308Z,13.80
2018-12-06T02:12:27.625Z,13.40
2018-12-06T02:14:56.335Z,15.37
2018-12-06T02:17:24.931Z,15.13
2018-12-06T02:19:53.842Z,15.00
2018-12-06T02:22:22.551Z,16.27
2018-12-06T02:24:51.424Z,18.40
2018-12-06T02:27:20.410Z,17.87
2018-12-06T02:29:54.264Z,18.90
2018-12-06T02:32:23.394Z,16.60
2018-12-06T02:34:51.992Z,17.40
2018-12-06T02:37:20.880Z,15.97
2018-12-06T02:39:49.990Z,15.17
2018-12-06T02:42:18.948Z,15.97
2018-12-06T02:44:47.949Z,16.47
2018-12-06T02:47:16.607Z,15.93
2018-12-06T02:49:45.189Z,16.67
2018-12-06T02:52:14.061Z,14.20
2018-12-06T02:54:43.036Z,16.97
2018-12-06T02:57:16.996Z,17.20
2018-12-06T02:59:45.670Z,16.47
2018-12-06T03:02:14.705Z,16.13
2018-12-06T03:04:43.721Z,17.63
2018-12-06T03:07:12.865Z,14.90
2018-12-06T03:09:42.520Z,14.70
2018-12-06T03:12:11.184Z,14.60
2018-12-06T03:14:40.377Z,13.73
2018-12-06T03:17:08.948Z,15.17
2018-12-06T03:19:37.876Z,16.73
2018-12-06T03:22:06.559Z,13.83
2018-12-06T03:24:35.453Z,14.57
2018-12-06T03:27:04.465Z,11.30
2018-12-06T03:29:33.440Z,10.03
2018-12-06T03:32:02.442Z,12.80
2018-12-06T03:34:31.531Z,12.93
2018-12-06T03:37:00.521Z,14.97
2018-12-06T03:39:29.888Z,12.63
2018-12-06T03:41:58.574Z,13.20
2018-12-06T03:44:27.166Z,13.17
2018-12-06T03:46:55.748Z,11.13
2018-12-06T03:49:24.700Z,12.67
2018-12-06T03:51:53.695Z,13.27
2018-12-06T03:54:22.707Z,11.07
2018-12-06T03:56:51.432Z,9.77
2018-12-06T03:59:20.386Z,9.80
2018-12-06T04:01:49.070Z,10.10
2018-12-06T04:04:17.970Z,9.00
2018-12-06T04:06:46.952Z,7.40
2018-12-06T04:09:15.624Z,7.70
2018-12-06T04:11:44.512Z,7.13
2018-12-06T04:14:13.500Z,7.90
2018-12-06T04:16:42.488Z,7.70
2018-12-06T04:19:11.487Z,7.00
2018-12-06T04:21:40.449Z,9.87
2018-12-06T04:24:09.479Z,9.67
2018-12-06T04:26:38.475Z,7.70
2018-12-06T04:29:07.528Z,6.47
2018-12-06T04:31:37.712Z,6.87
2018-12-06T04:34:06.664Z,7.50
2018-12-06T04:36:35.670Z,7.90
2018-12-06T04:39:07.737Z,5.50
2018-12-06T04:41:36.707Z,8.20
2018-12-06T04:44:05.649Z,5.60
2018-12-06T04:46:34.627Z,5.40
2018-12-06T04:49:03.293Z,5.40
2018-12-06T04:51:32.193Z,6.73
2018-12-06T04:54:01.199Z,7.50
2018-12-06T04:56:30.183Z,7.43
2018-12-06T04:58:59.138Z,7.20
2018-12-06T05:01:28.115Z,7.43
2018-12-06T05:03:57.055Z,6.10
2018-12-06T05:06:26.105Z,7.73
2018-12-06T05:08:55.064Z,7.53
2018-12-06T05:11:24.084Z,11.27
2018-12-06T05:13:53.091Z,12.07
2018-12-06T05:16:22.545Z,12.57
2018-12-06T05:18:51.517Z,10.57
2018-12-06T05:21:20.202Z,10.43
2018-12-06T05:23:49.212Z,11.07
2018-12-06T05:26:18.275Z,9.70
2018-12-06T05:28:47.343Z,9.80
2018-12-06T05:31:16.308Z,12.87
2018-12-06T05:33:45.331Z,9.77
2018-12-06T05:36:13.985Z,9.53
2018-12-06T05:38:42.885Z,9.03
2018-12-06T05:41:11.615Z,5.97
2018-12-06T05:43:40.529Z,8.40
2018-12-06T05:46:09.622Z,10.40
2018-12-06T05:48:38.307Z,8.73
2018-12-06T05:51:07.218Z,10.20
2018-12-06T05:53:36.204Z,10.33
2018-12-06T05:56:04.876Z,9.00
2018-12-06T05:58:33.870Z,7.13
2018-12-06T06:01:03.040Z,8.30
2018-12-06T06:03:31.820Z,7.27
2018-12-06T06:06:00.714Z,9.03
2018-12-06T06:08:29.409Z,9.20
2018-12-06T06:10:58.309Z,8.77
2018-12-06T06:13:27.007Z,9.63
2018-12-06T06:15:56.464Z,7.33
2018-12-06T06:18:25.482Z,11.73
2018-12-06T06:20:54.457Z,8.67
2018-12-06T06:23:23.469Z,8.87
2018-12-06T06:25:53.042Z,12.63
2018-12-06T06:28:22.074Z,11.07
2018-12-06T06:30:51.204Z,15.60
2018-12-06T06:33:20.288Z,10.63
2018-12-06T06:35:49.396Z,10.23
2018-12-06T06:38:18.092Z,11.90
2018-12-06T06:40:46.703Z,9.47
2018-12-06T06:43:15.284Z,10.30
2018-12-06T06:45:45.097Z,11.87
2018-12-06T06:48:14.121Z,12.93
2018-12-06T06:50:43.098Z,12.93
2018-12-06T06:53:12.124Z,11.53
2018-12-06T06:55:41.321Z,12.47
2018-12-06T06:58:10.883Z,9.17
2018-12-06T07:00:39.938Z,9.57
2018-12-06T07:03:08.914Z,12.40
2018-12-06T07:05:37.889Z,9.27
2018-12-06T07:08:06.717Z,9.13
2018-12-06T07:10:35.604Z,9.63
2018-12-06T07:13:04.600Z,11.17
2018-12-06T07:15:33.589Z,9.87
2018-12-06T07:18:02.298Z,8.87
2018-12-06T07:20:31.208Z,11.53
2018-12-06T07:23:01.003Z,7.70
2018-12-06T07:25:29.976Z,8.93
2018-12-06T07:27:58.965Z,9.70
2018-12-06T07:30:27.763Z,11.10
2018-12-06T07:32:56.667Z,6.27
2018-12-06T07:35:25.340Z,5.97
2018-12-06T07:37:53.960Z,5.83
2018-12-06T07:40:22.591Z,6.73
2018-12-06T07:42:51.522Z,7.63
2018-12-06T07:45:20.713Z,6.43
2018-12-06T07:47:49.747Z,8.33
2018-12-06T07:50:18.386Z,5.70
2018-12-06T07:52:46.988Z,5.53
2018-12-06T07:55:15.964Z,7.13
2018-12-06T07:57:44.916Z,5.67
2018-12-06T08:00:14.281Z,6.13
2018-12-06T08:02:42.952Z,4.63
2018-12-06T08:05:12.003Z,3.80
2018-12-06T08:07:41.065Z,4.87
2018-12-06T08:10:10.514Z,3.70
2018-12-06T08:12:39.514Z,5.73
2018-12-06T08:15:09.349Z,7.23
2018-12-06T08:17:38.337Z,5.07
2018-12-06T08:20:08.155Z,6.07
2018-12-06T08:22:36.811Z,5.03
2018-12-06T08:25:05.860Z,4.40
2018-12-06T08:27:34.442Z,3.87
2018-12-06T08:30:03.931Z,3.67
2018-12-06T08:32:33.396Z,5.47
2018-12-06T08:35:02.665Z,3.87
2018-12-06T08:37:31.625Z,4.27
2018-12-06T08:40:00.767Z,5.60
2018-12-06T08:42:29.677Z,5.37
2018-12-06T08:44:58.368Z,3.40
2018-12-06T08:47:27.253Z,6.77
2018-12-06T08:49:56.615Z,3.00
2018-12-06T08:52:25.523Z,5.60
2018-12-06T08:54:54.521Z,4.97
2018-12-06T08:57:23.183Z,4.83
2018-12-06T08:59:52.080Z,4.27
2018-12-06T09:02:21.045Z,7.77
2018-12-06T09:04:49.734Z,6.23
2018-12-06T09:07:18.613Z,4.70
2018-12-06T09:09:47.673Z,5.97
2018-12-06T09:12:16.673Z,7.33
2018-12-06T09:14:45.365Z,3.77
2018-12-06T09:17:14.265Z,5.07
2018-12-06T09:19:43.267Z,6.37
2018-12-06T09:22:11.946Z,4.67
2018-12-06T09:24:40.879Z,3.70
2018-12-06T09:27:09.850Z,3.87
2018-12-06T09:29:38.849Z,4.30
2018-12-06T09:32:07.492Z,3.93
2018-12-06T09:34:36.415Z,4.33
2018-12-06T09:37:05.598Z,4.60
2018-12-06T09:39:34.601Z,5.77
2018-12-06T09:42:03.265Z,6.70
2018-12-06T09:44:33.197Z,5.33
2018-12-06T09:47:02.175Z,8.20
2018-12-06T09:49:32.816Z,3.80
2018-12-06T09:52:02.024Z,3.70
2018-12-06T09:54:31.029Z,4.00
2018-12-06T09:57:00.729Z,3.53
2018-12-06T09:59:29.944Z,4.20
2018-12-06T10:01:59.554Z,5.77
2018-12-06T10:04:28.128Z,3.43
2018-12-06T10:06:56.711Z,3.97
2018-12-06T10:09:25.743Z,4.63
2018-12-06T10:11:54.408Z,4.23
2018-12-06T10:14:23.299Z,5.23
2018-12-06T10:16:52.001Z,5.30
2018-12-06T10:19:20.915Z,6.37
2018-12-06T10:21:49.608Z,6.10
2018-12-06T10:24:18.647Z,4.63
2018-12-06T10:26:47.550Z,4.73
2018-12-06T10:29:16.520Z,4.37
2018-12-06T10:31:45.535Z,4.70
2018-12-06T10:34:14.492Z,5.20
2018-12-06T10:36:43.474Z,4.40
2018-12-06T10:39:12.151Z,7.20
2018-12-06T10:41:40.804Z,4.10
2018-12-06T10:44:11.699Z,6.33
2018-12-06T10:46:40.701Z,6.33
2018-12-06T10:49:09.818Z,7.63
2018-12-06T10:51:42.548Z,6.27
2018-12-06T10:54:11.581Z,6.37
2018-12-06T10:56:40.825Z,8.27
2018-12-06T10:59:09.841Z,6.37
2018-12-06T11:01:44.204Z,5.07
2018-12-06T11:04:13.235Z,7.83
2018-12-06T11:06:42.258Z,6.77
2018-12-06T11:09:10.956Z,7.20
2018-12-06T11:11:39.581Z,6.87
2018-12-06T11:14:13.053Z,7.70
2018-12-06T11:16:42.292Z,6.50
2018-12-06T11:19:11.024Z,7.50
2018-12-06T11:21:39.612Z,6.27
2018-12-06T11:24:08.242Z,6.60
2018-12-06T11:26:36.911Z,5.87
2018-12-06T11:29:05.847Z,6.37
2018-12-06T11:31:34.908Z,6.57
2018-12-06T11:34:03.604Z,5.57
2018-12-06T11:36:32.546Z,5.53
2018-12-06T11:39:01.509Z,6.27
2018-12-06T11:41:30.512Z,5.70
2018-12-06T11:44:00.249Z,6.63
2018-12-06T11:46:29.286Z,7.13
2018-12-06T11:48:58.032Z,4.63
2018-12-06T11:51:26.679Z,10.00
2018-12-06T11:53:55.552Z,6.03
2018-12-06T11:56:24.542Z,4.63
2018-12-06T11:58:53.488Z,4.33
2018-12-06T12:01:22.482Z,6.77
2018-12-06T12:03:51.413Z,5.50
2018-12-06T12:06:20.404Z,4.23
2018-12-06T12:08:49.082Z,4.17
2018-12-06T12:11:17.682Z,4.97
2018-12-06T12:13:46.556Z,3.57
2018-12-06T12:16:15.239Z,4.97
2018-12-06T12:18:44.086Z,3.90
2018-12-06T12:21:13.117Z,4.33
2018-12-06T12:23:42.085Z,3.60
2018-12-06T12:26:11.075Z,3.37
2018-12-06T12:28:40.020Z,4.53
2018-12-06T12:31:09.007Z,4.07
2018-12-06T12:33:37.984Z,5.03
2018-12-06T12:36:06.965Z,4.63
2018-12-06T12:38:35.938Z,2.93
2018-12-06T12:41:05.167Z,4.97
2018-12-06T12:43:34.145Z,3.97
2018-12-06T12:46:03.105Z,3.20
2018-12-06T12:48:32.100Z,3.47
2018-12-06T12:51:00.764Z,3.50
2018-12-06T12:53:29.981Z,3.43
2018-12-06T12:55:58.941Z,6.80
2018-12-06T12:58:27.976Z,5.10
2018-12-06T13:00:56.960Z,2.70
2018-12-06T13:03:25.961Z,3.23
2018-12-06T13:05:55.061Z,2.13
2018-12-06T13:08:24.036Z,3.07
2018-12-06T13:10:53.202Z,3.10
2018-12-06T13:13:22.216Z,2.23
2018-12-06T13:15:51.186Z,3.40
2018-12-06T13:18:20.374Z,2.40
2018-12-06T13:20:49.418Z,1.80
2018-12-06T13:23:18.450Z,2.90
2018-12-06T13:25:47.480Z,2.43
2018-12-06T13:28:16.460Z,3.20
2018-12-06T13:30:45.606Z,3.73
2018-12-06T13:33:14.632Z,2.30
2018-12-06T13:35:43.588Z,3.73
2018-12-06T13:38:12.601Z,3.33
2018-12-06T13:40:41.586Z,3.53
2018-12-06T13:43:10.684Z,2.07
2018-12-06T13:45:39.694Z,2.00
2018-12-06T13:48:08.836Z,2.10
2018-12-06T13:50:37.859Z,2.23
2018-12-06T13:53:06.858Z,4.50
2018-12-06T13:55:35.857Z,3.93
2018-12-06T13:58:04.911Z,2.17
2018-12-06T14:00:34.077Z,6.43
2018-12-06T14:03:03.590Z,2.50
2018-12-06T14:05:32.566Z,2.77
2018-12-06T14:08:01.565Z,2.13
2018-12-06T14:10:30.600Z,2.10
2018-12-06T14:12:59.645Z,2.00
2018-12-06T14:15:28.642Z,2.20
2018-12-06T14:17:57.648Z,3.13
2018-12-06T14:20:26.781Z,2.70
2018-12-06T14:22:55.899Z,3.20
2018-12-06T14:25:24.915Z,3.30
2018-12-06T14:27:53.938Z,2.53
2018-12-06T14:30:22.922Z,3.63
2018-12-06T14:32:51.949Z,2.93
2018-12-06T14:35:21.075Z,4.17
2018-12-06T14:37:50.176Z,5.13
2018-12-06T14:40:19.200Z,2.73
2018-12-06T14:42:48.200Z,4.30
2018-12-06T14:45:18.840Z,3.57
2018-12-06T14:47:48.019Z,5.37
2018-12-06T14:50:17.124Z,2.43
2018-12-06T14:52:46.160Z,2.93
2018-12-06T14:55:15.153Z,3.30
2018-12-06T14:57:44.158Z,2.03
2018-12-06T15:00:13.753Z,3.30
2018-12-06T15:02:42.767Z,4.47
2018-12-06T15:05:11.758Z,3.00
2018-12-06T15:07:40.768Z,1.70
2018-12-06T15:10:09.880Z,2.63
2018-12-06T15:12:39.486Z,2.33
2018-12-06T15:15:08.733Z,3.77
2018-12-06T15:17:37.812Z,2.53
2018-12-06T15:20:07.384Z,2.40
2018-12-06T15:22:36.401Z,3.87
2018-12-06T15:25:06.769Z,2.70
2018-12-06T15:27:37.865Z,4.60
2018-12-06T15:30:09.092Z,3.30
2018-12-06T15:32:38.103Z,2.90
2018-12-06T15:35:07.128Z,3.90
2018-12-06T15:37:36.166Z,2.23
2018-12-06T15:40:05.788Z,2.63
2018-12-06T15:42:34.919Z,3.70
2018-12-06T15:45:04.161Z,4.80
2018-12-06T15:47:33.133Z,7.80
2018-12-06T15:50:02.217Z,3.13
2018-12-06T15:52:31.208Z,3.57
2018-12-06T15:55:00.300Z,3.13
2018-12-06T15:57:29.295Z,2.23
2018-12-06T15:59:58.270Z,2.87
2018-12-06T16:02:27.395Z,4.63
2018-12-06T16:04:56.387Z,2.40
2018-12-06T16:07:25.406Z,2.33
2018-12-06T16:09:54.428Z,4.00
2018-12-06T16:12:23.477Z,1.90
2018-12-06T16:14:52.531Z,6.00
2018-12-06T16:17:21.524Z,5.00
2018-12-06T16:19:50.521Z,3.27
2018-12-06T16:22:19.529Z,2.50
2018-12-06T16:24:48.528Z,4.87
2018-12-06T16:27:17.550Z,3.93
2018-12-06T16:29:51.400Z,2.47
2018-12-06T16:32:17.543Z,6.10
2018-12-06T16:34:46.605Z,4.50
2018-12-06T16:37:15.629Z,3.03
2018-12-06T16:39:44.633Z,2.77
2018-12-06T16:42:13.629Z,2.50
2018-12-06T16:44:42.617Z,4.40
2018-12-06T16:47:11.617Z,3.67
2018-12-06T16:49:40.928Z,4.37
2018-12-06T16:52:10.344Z,2.47
2018-12-06T16:54:39.342Z,3.80
2018-12-06T16:57:08.334Z,3.60
2018-12-06T16:59:37.332Z,3.30
2018-12-06T17:02:06.463Z,4.27
2018-12-06T17:04:35.473Z,5.87
2018-12-06T17:07:04.742Z,3.20
2018-12-06T17:09:33.733Z,5.40
2018-12-06T17:12:02.808Z,3.17
2018-12-06T17:14:31.816Z,2.93
2018-12-06T17:17:00.808Z,5.13
2018-12-06T17:19:29.891Z,3.13
2018-12-06T17:21:58.832Z,2.77
2018-12-06T17:24:27.797Z,3.30
2018-12-06T17:26:56.795Z,2.60
2018-12-06T17:29:25.813Z,3.33
2018-12-06T17:31:55.009Z,3.20
2018-12-06T17:34:24.000Z,2.43
2018-12-06T17:36:53.155Z,3.53
2018-12-06T17:39:22.159Z,3.93
2018-12-06T17:41:51.126Z,3.57
2018-12-06T17:44:20.101Z,2.27
2018-12-06T17:46:49.062Z,3.73
2018-12-06T17:49:18.037Z,4.33
2018-12-06T17:51:46.997Z,3.60
2018-12-06T17:54:16.015Z,3.23
2018-12-06T17:56:45.002Z,2.33
2018-12-06T17:59:13.996Z,2.17
2018-12-06T18:01:42.970Z,2.50
2018-12-06T18:04:12.123Z,2.20
2018-12-06T18:06:41.087Z,3.83
2018-12-06T18:09:10.109Z,3.50
2018-12-06T18:11:39.121Z,2.97
2018-12-06T18:14:08.108Z,2.80
2018-12-06T18:16:37.131Z,2.53
2018-12-06T18:19:06.260Z,2.90
2018-12-06T18:21:35.224Z,2.93
2018-12-06T18:24:04.385Z,2.90
2018-12-06T18:26:33.385Z,2.93
2018-12-06T18:29:02.352Z,3.10
2018-12-06T18:31:31.393Z,3.40
2018-12-06T18:34:00.369Z,3.47
2018-12-06T18:36:29.463Z,3.17
2018-12-06T18:38:58.458Z,2.50
2018-12-06T18:41:27.489Z,3.03
2018-12-06T18:43:56.609Z,3.57
2018-12-06T18:46:25.641Z,3.20
2018-12-06T18:48:54.677Z,2.53
2018-12-06T18:51:23.698Z,3.57
2018-12-06T18:53:52.917Z,3.73
2018-12-06T18:56:21.973Z,5.20
2018-12-06T18:58:50.949Z,4.77
2018-12-06T19:01:19.934Z,4.13
2018-12-06T19:03:48.972Z,3.47
2018-12-06T19:06:17.992Z,3.10
2018-12-06T19:08:46.964Z,3.40
2018-12-06T19:11:16.203Z,3.87
2018-12-06T19:13:45.168Z,4.83
2018-12-06T19:16:14.195Z,4.67
2018-12-06T19:18:43.180Z,6.23
2018-12-06T19:21:12.184Z,5.27
2018-12-06T19:23:41.182Z,5.23
2018-12-06T19:26:10.244Z,3.57
2018-12-06T19:28:39.275Z,4.83
2018-12-06T19:31:08.265Z,6.33
2018-12-06T19:33:37.223Z,4.60
2018-12-06T19:36:06.360Z,4.77
2018-12-06T19:39:22.617Z,8.07
2018-12-06T19:41:51.600Z,6.43
2018-12-06T19:44:20.708Z,7.93
2018-12-06T19:46:49.702Z,7.57
2018-12-06T19:49:18.693Z,8.00
2018-12-06T19:51:47.683Z,5.23
2018-12-06T19:54:16.784Z,6.63
2018-12-06T19:56:45.776Z,7.40
2018-12-06T19:59:14.773Z,7.07
2018-12-06T20:01:43.743Z,7.10
2018-12-06T20:04:12.713Z,4.67
2018-12-06T20:06:41.711Z,5.93
2018-12-06T20:09:10.958Z,4.17
2018-12-06T20:11:40.037Z,5.23
2018-12-06T20:14:09.019Z,4.30
2018-12-06T20:16:38.066Z,5.63
2018-12-06T20:19:07.117Z,4.57
2018-12-06T20:21:36.084Z,7.40
2018-12-06T20:24:05.200Z,4.27
2018-12-06T20:26:34.192Z,3.83
2018-12-06T20:29:03.184Z,5.77
2018-12-06T20:31:32.208Z,4.53
2018-12-06T20:34:01.207Z,4.70
2018-12-06T20:36:30.167Z,2.37
2018-12-06T20:38:59.136Z,3.10
2018-12-06T20:41:28.121Z,2.30
2018-12-06T20:43:57.108Z,2.60
2018-12-06T20:46:26.085Z,2.77
2018-12-06T20:48:55.344Z,3.27
2018-12-06T20:51:24.341Z,3.23
2018-12-06T20:53:53.307Z,3.33
2018-12-06T20:56:22.366Z,2.20
2018-12-06T20:58:51.406Z,3.90
2018-12-06T21:01:20.647Z,4.13
2018-12-06T21:03:49.751Z,2.50
2018-12-06T21:06:18.780Z,5.60
2018-12-06T21:08:47.731Z,2.83
2018-12-06T21:11:17.014Z,3.00
2018-12-06T21:13:46.009Z,3.40
2018-12-06T21:16:15.026Z,2.27
2018-12-06T21:18:44.001Z,3.47
2018-12-06T21:21:13.009Z,2.03
2018-12-06T21:23:42.001Z,2.37
2018-12-06T21:26:11.717Z,6.10
2018-12-06T21:28:40.754Z,2.57
2018-12-06T21:31:09.732Z,2.10
2018-12-06T21:33:38.720Z,2.60
2018-12-06T21:36:07.780Z,2.57
2018-12-06T21:38:36.761Z,2.00
2018-12-06T21:41:05.826Z,1.60
2018-12-06T21:43:34.813Z,1.63
2018-12-06T21:46:03.928Z,1.80
2018-12-06T21:48:32.938Z,2.47
2018-12-06T21:51:01.941Z,3.07
2018-12-06T21:53:30.948Z,1.93
2018-12-06T21:56:00.056Z,1.77
2018-12-06T21:58:29.146Z,2.57
2018-12-06T22:00:58.260Z,2.13
2018-12-06T22:03:27.268Z,1.77
2018-12-06T22:05:56.253Z,2.27
2018-12-06T22:08:25.335Z,2.00
2018-12-06T22:10:54.353Z,3.30
2018-12-06T22:13:23.328Z,2.00
2018-12-06T22:15:52.327Z,2.83
2018-12-06T22:18:21.365Z,1.80
2018-12-06T22:20:50.337Z,1.57
2018-12-06T22:23:19.420Z,2.03
2018-12-06T22:25:48.392Z,2.40
2018-12-06T22:28:17.517Z,2.03
2018-12-06T22:30:46.488Z,1.43
2018-12-06T22:33:15.551Z,3.50
2018-12-06T22:35:44.504Z,1.83
2018-12-06T22:38:13.499Z,1.60
2018-12-06T22:40:42.477Z,1.80
2018-12-06T22:43:11.436Z,2.03
2018-12-06T22:46:11.272Z,1.40
2018-12-06T22:48:40.272Z,1.70
2018-12-06T22:51:09.248Z,2.67
2018-12-06T22:53:38.508Z,1.97
2018-12-06T22:56:07.576Z,2.30
2018-12-06T22:58:36.565Z,2.13
2018-12-06T23:01:08.620Z,1.37
2018-12-06T23:03:37.816Z,1.43
2018-12-06T23:06:07.100Z,2.37
2018-12-06T23:08:36.096Z,1.50
2018-12-06T23:11:06.136Z,2.10
2018-12-06T23:13:35.228Z,1.67
2018-12-06T23:16:04.520Z,2.13
2018-12-06T23:18:33.545Z,1.33
2018-12-06T23:21:02.848Z,3.10
2018-12-06T23:23:31.843Z,1.30
2018-12-06T23:26:00.909Z,1.13
2018-12-06T23:28:29.910Z,1.50
2018-12-06T23:30:58.876Z,2.23
2018-12-06T23:33:31.999Z,2.30
2018-12-06T23:35:58.893Z,1.50
2018-12-06T23:38:27.877Z,1.90
2018-12-06T23:40:57.178Z,2.57
2018-12-06T23:43:26.169Z,1.63
2018-12-06T23:45:55.136Z,2.90
2018-12-06T23:48:24.193Z,2.37
2018-12-06T23:51:00.867Z,2.30
2018-12-06T23:53:29.868Z,1.90
2018-12-06T23:55:58.872Z,1.37
2018-12-06T23:58:27.857Z,3.33
